sensor_id;sensor_type;location;lat;lon;timestamp;temperature;humidity
74488;DHT22;63019;51.080;13.642;2024-01-11T00:00:54;-6.40;99.90
74488;DHT22;63019;51.080;13.642;2024-01-11T00:01:56;-6.40;99.90
74488;DHT22;63019;51.080;13.642;2024-01-11T00:02:58;-6.40;99.90
74488;DHT22;63019;51.080;13.642;2024-01-11T00:04:00;-6.40;99.90
74488;DHT22;63019;51.080;13.642;2024-01-11T00:05:02;-6.40;99.90
74488;DHT22;63019;51.080;13.642;2024-01-11T00:06:04;-6.50;99.90
74488;DHT22;63019;51.080;13.642;2024-01-11T00:07:06;-6.50;99.90
74488;DHT22;63019;51.080;13.642;2024-01-11T00:08:08;-6.50;99.90
74488;DHT22;63019;51.080;13.642;2024-01-11T00:09:10;-6.40;99.90
74488;DHT22;63019;51.080;13.642;2024-01-11T00:10:12;-6.40;99.90
74488;DHT22;63019;51.080;13.642;2024-01-11T00:11:14;-6.40;99.90
74488;DHT22;63019;51.080;13.642;2024-01-11T00:12:19;-6.40;99.90
74488;DHT22;63019;51.080;13.642;2024-01-11T00:13:21;-6.40;99.90
74488;DHT22;63019;51.080;13.642;2024-01-11T00:14:23;-6.50;99.90
74488;DHT22;63019;51.080;13.642;2024-01-11T00:15:25;-6.40;99.90
74488;DHT22;63019;51.080;13.642;2024-01-11T00:16:27;-6.40;99.90
74488;DHT22;63019;51.080;13.642;2024-01-11T00:17:29;-6.40;99.90
74488;DHT22;63019;51.080;13.642;2024-01-11T00:18:31;-6.40;99.90
74488;DHT22;63019;51.080;13.642;2024-01-11T00:19:33;-6.50;99.90
74488;DHT22;63019;51.080;13.642;2024-01-11T00:20:35;-6.50;99.90
74488;DHT22;63019;51.080;13.642;2024-01-11T00:21:37;-6.60;99.90
74488;DHT22;63019;51.080;13.642;2024-01-11T00:22:42;-6.60;99.90
74488;DHT22;63019;51.080;13.642;2024-01-11T00:23:44;-6.60;99.90
74488;DHT22;63019;51.080;13.642;2024-01-11T00:24:46;-6.60;99.90
74488;DHT22;63019;51.080;13.642;2024-01-11T00:25:48;-6.60;99.90
74488;DHT22;63019;51.080;13.642;2024-01-11T00:26:50;-6.60;99.90
74488;DHT22;63019;51.080;13.642;2024-01-11T00:27:52;-6.60;99.90
74488;DHT22;63019;51.080;13.642;2024-01-11T00:28:54;-6.60;99.90
74488;DHT22;63019;51.080;13.642;2024-01-11T00:29:56;-6.60;99.90
74488;DHT22;63019;51.080;13.642;2024-01-11T00:30:58;-6.60;99.90
74488;DHT22;63019;51.080;13.642;2024-01-11T00:32:00;-6.60;99.90
74488;DHT22;63019;51.080;13.642;2024-01-11T00:33:02;-6.60;99.90
74488;DHT22;63019;51.080;13.642;2024-01-11T00:34:04;-6.60;99.90
74488;DHT22;63019;51.080;13.642;2024-01-11T00:35:07;-6.60;99.90
74488;DHT22;63019;51.080;13.642;2024-01-11T00:36:09;-6.60;99.90
74488;DHT22;63019;51.080;13.642;2024-01-11T00:37:11;-6.60;99.90
74488;DHT22;63019;51.080;13.642;2024-01-11T00:38:13;-6.60;99.90
74488;DHT22;63019;51.080;13.642;2024-01-11T00:39:19;-6.60;99.90
74488;DHT22;63019;51.080;13.642;2024-01-11T00:40:21;-6.70;99.90
74488;DHT22;63019;51.080;13.642;2024-01-11T00:41:23;-6.70;99.90
74488;DHT22;63019;51.080;13.642;2024-01-11T00:42:25;-6.70;99.90
74488;DHT22;63019;51.080;13.642;2024-01-11T00:43:27;-6.70;99.90
74488;DHT22;63019;51.080;13.642;2024-01-11T00:44:29;-6.70;99.90
74488;DHT22;63019;51.080;13.642;2024-01-11T00:45:31;-6.70;99.90
74488;DHT22;63019;51.080;13.642;2024-01-11T00:46:34;-6.80;99.90
74488;DHT22;63019;51.080;13.642;2024-01-11T00:47:36;-6.80;99.90
74488;DHT22;63019;51.080;13.642;2024-01-11T00:48:38;-6.80;99.90
74488;DHT22;63019;51.080;13.642;2024-01-11T00:49:40;-6.80;99.90
74488;DHT22;63019;51.080;13.642;2024-01-11T00:50:42;-6.80;99.90
74488;DHT22;63019;51.080;13.642;2024-01-11T00:51:47;-6.80;99.90
74488;DHT22;63019;51.080;13.642;2024-01-11T00:52:49;-6.80;99.90
74488;DHT22;63019;51.080;13.642;2024-01-11T00:53:51;-6.80;99.90
74488;DHT22;63019;51.080;13.642;2024-01-11T00:54:53;-6.70;99.90
74488;DHT22;63019;51.080;13.642;2024-01-11T00:55:55;-6.70;99.90
74488;DHT22;63019;51.080;13.642;2024-01-11T00:56:57;-6.70;99.90
74488;DHT22;63019;51.080;13.642;2024-01-11T00:57:58;-6.70;99.90
74488;DHT22;63019;51.080;13.642;2024-01-11T00:59:00;-6.70;99.90
74488;DHT22;63019;51.080;13.642;2024-01-11T01:00:03;-6.80;99.90
74488;DHT22;63019;51.080;13.642;2024-01-11T01:01:09;-6.80;99.90
74488;DHT22;63019;51.080;13.642;2024-01-11T01:02:11;-6.80;99.90
74488;DHT22;63019;51.080;13.642;2024-01-11T01:03:13;-6.80;99.90
74488;DHT22;63019;51.080;13.642;2024-01-11T01:04:16;-6.80;99.90
74488;DHT22;63019;51.080;13.642;2024-01-11T01:05:18;-6.90;99.90
74488;DHT22;63019;51.080;13.642;2024-01-11T01:06:20;-6.90;99.90
74488;DHT22;63019;51.080;13.642;2024-01-11T01:07:22;-6.90;99.90
74488;DHT22;63019;51.080;13.642;2024-01-11T01:08:24;-6.90;99.90
74488;DHT22;63019;51.080;13.642;2024-01-11T01:09:26;-6.90;99.90
74488;DHT22;63019;51.080;13.642;2024-01-11T01:10:28;-6.90;99.90
74488;DHT22;63019;51.080;13.642;2024-01-11T01:11:30;-7.00;99.90
74488;DHT22;63019;51.080;13.642;2024-01-11T01:12:32;-7.00;99.90
74488;DHT22;63019;51.080;13.642;2024-01-11T01:13:34;-7.00;99.90
74488;DHT22;63019;51.080;13.642;2024-01-11T01:14:36;-7.00;99.90
74488;DHT22;63019;51.080;13.642;2024-01-11T01:15:38;-7.00;99.90
74488;DHT22;63019;51.080;13.642;2024-01-11T01:16:40;-7.10;99.90
74488;DHT22;63019;51.080;13.642;2024-01-11T01:17:41;-7.10;99.90
74488;DHT22;63019;51.080;13.642;2024-01-11T01:18:43;-7.10;99.90
74488;DHT22;63019;51.080;13.642;2024-01-11T01:19:48;-7.10;99.90
74488;DHT22;63019;51.080;13.642;2024-01-11T01:20:50;-7.10;99.90
74488;DHT22;63019;51.080;13.642;2024-01-11T01:21:52;-7.10;99.90
74488;DHT22;63019;51.080;13.642;2024-01-11T01:22:54;-7.10;99.90
74488;DHT22;63019;51.080;13.642;2024-01-11T01:23:56;-7.10;99.90
74488;DHT22;63019;51.080;13.642;2024-01-11T01:24:58;-7.10;99.90
74488;DHT22;63019;51.080;13.642;2024-01-11T01:26:00;-7.20;99.90
74488;DHT22;63019;51.080;13.642;2024-01-11T01:27:06;-7.10;99.90
74488;DHT22;63019;51.080;13.642;2024-01-11T01:28:07;-7.10;99.90
74488;DHT22;63019;51.080;13.642;2024-01-11T01:29:09;-7.10;99.90
74488;DHT22;63019;51.080;13.642;2024-01-11T01:30:11;-7.10;99.90
74488;DHT22;63019;51.080;13.642;2024-01-11T01:31:13;-7.10;99.90
74488;DHT22;63019;51.080;13.642;2024-01-11T01:32:16;-7.10;99.90
74488;DHT22;63019;51.080;13.642;2024-01-11T01:33:18;-7.20;99.90
74488;DHT22;63019;51.080;13.642;2024-01-11T01:34:21;-7.10;99.90
74488;DHT22;63019;51.080;13.642;2024-01-11T01:35:23;-7.20;99.90
74488;DHT22;63019;51.080;13.642;2024-01-11T01:36:25;-7.20;99.90
74488;DHT22;63019;51.080;13.642;2024-01-11T01:37:27;-7.20;99.90
74488;DHT22;63019;51.080;13.642;2024-01-11T01:38:29;-7.20;99.90
74488;DHT22;63019;51.080;13.642;2024-01-11T01:39:32;-7.20;99.90
74488;DHT22;63019;51.080;13.642;2024-01-11T01:40:34;-7.20;99.90
74488;DHT22;63019;51.080;13.642;2024-01-11T01:41:36;-7.20;99.90
74488;DHT22;63019;51.080;13.642;2024-01-11T01:42:45;-7.30;99.90
74488;DHT22;63019;51.080;13.642;2024-01-11T01:43:47;-7.40;99.90
74488;DHT22;63019;51.080;13.642;2024-01-11T01:44:52;-7.40;99.90
74488;DHT22;63019;51.080;13.642;2024-01-11T01:45:54;-7.40;99.90
74488;DHT22;63019;51.080;13.642;2024-01-11T01:46:56;-7.40;99.90
74488;DHT22;63019;51.080;13.642;2024-01-11T01:47:59;-7.40;99.90
74488;DHT22;63019;51.080;13.642;2024-01-11T01:49:02;-7.40;99.90
74488;DHT22;63019;51.080;13.642;2024-01-11T01:50:04;-7.40;99.90
74488;DHT22;63019;51.080;13.642;2024-01-11T01:51:07;-7.30;99.90
74488;DHT22;63019;51.080;13.642;2024-01-11T01:52:10;-7.30;99.90
74488;DHT22;63019;51.080;13.642;2024-01-11T01:53:19;-7.20;99.90
74488;DHT22;63019;51.080;13.642;2024-01-11T01:54:24;-7.20;99.90
74488;DHT22;63019;51.080;13.642;2024-01-11T01:55:27;-7.10;99.90
74488;DHT22;63019;51.080;13.642;2024-01-11T01:56:30;-7.10;99.90
74488;DHT22;63019;51.080;13.642;2024-01-11T01:57:34;-7.10;99.90
74488;DHT22;63019;51.080;13.642;2024-01-11T01:58:37;-7.10;99.90
74488;DHT22;63019;51.080;13.642;2024-01-11T01:59:39;-7.10;99.90
74488;DHT22;63019;51.080;13.642;2024-01-11T02:00:43;-7.20;99.90
74488;DHT22;63019;51.080;13.642;2024-01-11T02:01:45;-7.30;99.90
74488;DHT22;63019;51.080;13.642;2024-01-11T02:02:50;-7.30;99.90
74488;DHT22;63019;51.080;13.642;2024-01-11T02:03:54;-7.30;99.90
74488;DHT22;63019;51.080;13.642;2024-01-11T02:04:57;-7.30;99.90
74488;DHT22;63019;51.080;13.642;2024-01-11T02:05:59;-7.30;99.90
74488;DHT22;63019;51.080;13.642;2024-01-11T02:07:02;-7.30;99.90
74488;DHT22;63019;51.080;13.642;2024-01-11T02:08:06;-7.30;99.90
74488;DHT22;63019;51.080;13.642;2024-01-11T02:09:14;-7.30;99.90
74488;DHT22;63019;51.080;13.642;2024-01-11T02:10:16;-7.30;99.90
74488;DHT22;63019;51.080;13.642;2024-01-11T02:11:20;-7.20;99.90
74488;DHT22;63019;51.080;13.642;2024-01-11T02:12:25;-7.20;99.90
74488;DHT22;63019;51.080;13.642;2024-01-11T02:13:27;-7.30;99.90
74488;DHT22;63019;51.080;13.642;2024-01-11T02:14:30;-7.30;99.90
74488;DHT22;63019;51.080;13.642;2024-01-11T02:15:33;-7.30;99.90
74488;DHT22;63019;51.080;13.642;2024-01-11T02:16:36;-7.30;99.90
74488;DHT22;63019;51.080;13.642;2024-01-11T02:17:40;-7.20;99.90
74488;DHT22;63019;51.080;13.642;2024-01-11T02:18:43;-7.20;99.90
74488;DHT22;63019;51.080;13.642;2024-01-11T02:19:46;-7.20;99.90
74488;DHT22;63019;51.080;13.642;2024-01-11T02:20:48;-7.20;99.90
74488;DHT22;63019;51.080;13.642;2024-01-11T02:21:52;-7.20;99.90
74488;DHT22;63019;51.080;13.642;2024-01-11T02:23:01;-7.20;99.90
74488;DHT22;63019;51.080;13.642;2024-01-11T02:24:04;-7.20;99.90
74488;DHT22;63019;51.080;13.642;2024-01-11T02:25:06;-7.20;99.90
74488;DHT22;63019;51.080;13.642;2024-01-11T02:26:08;-7.20;99.90
74488;DHT22;63019;51.080;13.642;2024-01-11T02:27:10;-7.20;99.90
74488;DHT22;63019;51.080;13.642;2024-01-11T02:28:12;-7.20;99.90
74488;DHT22;63019;51.080;13.642;2024-01-11T02:29:14;-7.20;99.90
74488;DHT22;63019;51.080;13.642;2024-01-11T02:30:17;-7.30;99.90
74488;DHT22;63019;51.080;13.642;2024-01-11T02:31:19;-7.30;99.90
74488;DHT22;63019;51.080;13.642;2024-01-11T02:32:21;-7.30;99.90
74488;DHT22;63019;51.080;13.642;2024-01-11T02:33:24;-7.30;99.90
74488;DHT22;63019;51.080;13.642;2024-01-11T02:34:27;-7.30;99.90
74488;DHT22;63019;51.080;13.642;2024-01-11T02:35:30;-7.30;99.90
74488;DHT22;63019;51.080;13.642;2024-01-11T02:36:32;-7.30;99.90
74488;DHT22;63019;51.080;13.642;2024-01-11T02:37:36;-7.30;99.90
74488;DHT22;63019;51.080;13.642;2024-01-11T02:38:41;-7.30;99.90
74488;DHT22;63019;51.080;13.642;2024-01-11T02:39:44;-7.30;99.90
74488;DHT22;63019;51.080;13.642;2024-01-11T02:40:46;-7.30;99.90
74488;DHT22;63019;51.080;13.642;2024-01-11T02:41:51;-7.30;99.90
74488;DHT22;63019;51.080;13.642;2024-01-11T02:42:53;-7.30;99.90
74488;DHT22;63019;51.080;13.642;2024-01-11T02:44:09;-7.40;99.90
74488;DHT22;63019;51.080;13.642;2024-01-11T02:45:38;-7.30;99.90
74488;DHT22;63019;51.080;13.642;2024-01-11T02:47:09;-7.30;99.90
74488;DHT22;63019;51.080;13.642;2024-01-11T02:48:30;-7.30;99.90
74488;DHT22;63019;51.080;13.642;2024-01-11T02:49:32;-7.40;99.90
74488;DHT22;63019;51.080;13.642;2024-01-11T02:50:34;-7.40;99.90
74488;DHT22;63019;51.080;13.642;2024-01-11T02:51:36;-7.30;99.90
74488;DHT22;63019;51.080;13.642;2024-01-11T02:52:38;-7.30;99.90
74488;DHT22;63019;51.080;13.642;2024-01-11T02:53:40;-7.40;99.90
74488;DHT22;63019;51.080;13.642;2024-01-11T02:54:42;-7.40;99.90
74488;DHT22;63019;51.080;13.642;2024-01-11T02:55:44;-7.30;99.90
74488;DHT22;63019;51.080;13.642;2024-01-11T02:56:46;-7.30;99.90
74488;DHT22;63019;51.080;13.642;2024-01-11T02:57:48;-7.30;99.90
74488;DHT22;63019;51.080;13.642;2024-01-11T02:58:50;-7.30;99.90
74488;DHT22;63019;51.080;13.642;2024-01-11T02:59:52;-7.30;99.90
74488;DHT22;63019;51.080;13.642;2024-01-11T03:00:54;-7.30;99.90
74488;DHT22;63019;51.080;13.642;2024-01-11T03:01:56;-7.40;99.90
74488;DHT22;63019;51.080;13.642;2024-01-11T03:02:58;-7.40;99.90
74488;DHT22;63019;51.080;13.642;2024-01-11T03:04:00;-7.30;99.90
74488;DHT22;63019;51.080;13.642;2024-01-11T03:05:02;-7.30;99.90
74488;DHT22;63019;51.080;13.642;2024-01-11T03:06:04;-7.30;99.90
74488;DHT22;63019;51.080;13.642;2024-01-11T03:07:06;-7.20;99.90
74488;DHT22;63019;51.080;13.642;2024-01-11T03:08:08;-7.20;99.90
74488;DHT22;63019;51.080;13.642;2024-01-11T03:09:10;-7.30;99.90
74488;DHT22;63019;51.080;13.642;2024-01-11T03:10:12;-7.30;99.90
74488;DHT22;63019;51.080;13.642;2024-01-11T03:11:14;-7.40;99.90
74488;DHT22;63019;51.080;13.642;2024-01-11T03:12:16;-7.40;99.90
74488;DHT22;63019;51.080;13.642;2024-01-11T03:13:18;-7.40;99.90
74488;DHT22;63019;51.080;13.642;2024-01-11T03:14:20;-7.40;99.90
74488;DHT22;63019;51.080;13.642;2024-01-11T03:15:22;-7.50;99.90
74488;DHT22;63019;51.080;13.642;2024-01-11T03:16:24;-7.50;99.90
74488;DHT22;63019;51.080;13.642;2024-01-11T03:17:26;-7.40;99.90
74488;DHT22;63019;51.080;13.642;2024-01-11T03:18:28;-7.40;99.90
74488;DHT22;63019;51.080;13.642;2024-01-11T03:19:33;-7.50;99.90
74488;DHT22;63019;51.080;13.642;2024-01-11T03:20:35;-7.50;99.90
74488;DHT22;63019;51.080;13.642;2024-01-11T03:21:43;-7.60;99.90
74488;DHT22;63019;51.080;13.642;2024-01-11T03:22:46;-7.60;99.90
74488;DHT22;63019;51.080;13.642;2024-01-11T03:23:48;-7.60;99.90
74488;DHT22;63019;51.080;13.642;2024-01-11T03:24:50;-7.70;99.90
74488;DHT22;63019;51.080;13.642;2024-01-11T03:25:52;-7.70;99.90
74488;DHT22;63019;51.080;13.642;2024-01-11T03:26:54;-7.60;99.90
74488;DHT22;63019;51.080;13.642;2024-01-11T03:27:57;-7.70;99.90
74488;DHT22;63019;51.080;13.642;2024-01-11T03:28:59;-7.70;99.90
74488;DHT22;63019;51.080;13.642;2024-01-11T03:30:01;-7.70;99.90
74488;DHT22;63019;51.080;13.642;2024-01-11T03:31:04;-7.70;99.90
74488;DHT22;63019;51.080;13.642;2024-01-11T03:32:06;-7.70;99.90
74488;DHT22;63019;51.080;13.642;2024-01-11T03:33:08;-7.60;99.90
74488;DHT22;63019;51.080;13.642;2024-01-11T03:34:10;-7.60;99.90
74488;DHT22;63019;51.080;13.642;2024-01-11T03:35:13;-7.60;99.90
74488;DHT22;63019;51.080;13.642;2024-01-11T03:36:15;-7.60;99.90
74488;DHT22;63019;51.080;13.642;2024-01-11T03:37:16;-7.50;99.90
74488;DHT22;63019;51.080;13.642;2024-01-11T03:38:18;-7.50;99.90
74488;DHT22;63019;51.080;13.642;2024-01-11T03:39:20;-7.60;99.90
74488;DHT22;63019;51.080;13.642;2024-01-11T03:40:23;-7.60;99.90
74488;DHT22;63019;51.080;13.642;2024-01-11T03:41:24;-7.50;99.90
74488;DHT22;63019;51.080;13.642;2024-01-11T03:42:26;-7.50;99.90
74488;DHT22;63019;51.080;13.642;2024-01-11T03:43:28;-7.50;99.90
74488;DHT22;63019;51.080;13.642;2024-01-11T03:44:30;-7.40;99.90
74488;DHT22;63019;51.080;13.642;2024-01-11T03:45:33;-7.40;99.90
74488;DHT22;63019;51.080;13.642;2024-01-11T03:46:35;-7.30;99.90
74488;DHT22;63019;51.080;13.642;2024-01-11T03:47:37;-7.30;99.90
74488;DHT22;63019;51.080;13.642;2024-01-11T03:48:39;-7.30;99.90
74488;DHT22;63019;51.080;13.642;2024-01-11T03:49:42;-7.30;99.90
74488;DHT22;63019;51.080;13.642;2024-01-11T03:50:44;-7.30;99.90
74488;DHT22;63019;51.080;13.642;2024-01-11T03:51:46;-7.30;99.90
74488;DHT22;63019;51.080;13.642;2024-01-11T03:52:48;-7.30;99.90
74488;DHT22;63019;51.080;13.642;2024-01-11T03:53:50;-7.30;99.90
74488;DHT22;63019;51.080;13.642;2024-01-11T03:54:52;-7.20;99.90
74488;DHT22;63019;51.080;13.642;2024-01-11T03:55:54;-7.20;99.90
74488;DHT22;63019;51.080;13.642;2024-01-11T03:56:56;-7.30;99.90
74488;DHT22;63019;51.080;13.642;2024-01-11T03:57:58;-7.40;99.90
74488;DHT22;63019;51.080;13.642;2024-01-11T03:59:00;-7.40;99.90
74488;DHT22;63019;51.080;13.642;2024-01-11T04:00:02;-7.40;99.90
74488;DHT22;63019;51.080;13.642;2024-01-11T04:01:06;-7.50;99.90
74488;DHT22;63019;51.080;13.642;2024-01-11T04:02:09;-7.50;99.90
74488;DHT22;63019;51.080;13.642;2024-01-11T04:03:11;-7.50;99.90
74488;DHT22;63019;51.080;13.642;2024-01-11T04:04:13;-7.60;99.90
74488;DHT22;63019;51.080;13.642;2024-01-11T04:05:15;-7.70;99.90
74488;DHT22;63019;51.080;13.642;2024-01-11T04:06:24;-7.80;99.90
74488;DHT22;63019;51.080;13.642;2024-01-11T04:07:26;-7.80;99.90
74488;DHT22;63019;51.080;13.642;2024-01-11T04:08:28;-7.90;99.90
74488;DHT22;63019;51.080;13.642;2024-01-11T04:09:30;-7.90;99.90
74488;DHT22;63019;51.080;13.642;2024-01-11T04:10:32;-7.80;99.90
74488;DHT22;63019;51.080;13.642;2024-01-11T04:11:34;-7.80;99.90
74488;DHT22;63019;51.080;13.642;2024-01-11T04:12:36;-7.80;99.90
74488;DHT22;63019;51.080;13.642;2024-01-11T04:13:39;-7.70;99.90
74488;DHT22;63019;51.080;13.642;2024-01-11T04:14:41;-7.70;99.90
74488;DHT22;63019;51.080;13.642;2024-01-11T04:15:43;-7.70;99.90
74488;DHT22;63019;51.080;13.642;2024-01-11T04:16:45;-7.60;99.90
74488;DHT22;63019;51.080;13.642;2024-01-11T04:17:47;-7.60;99.90
74488;DHT22;63019;51.080;13.642;2024-01-11T04:18:49;-7.60;99.90
74488;DHT22;63019;51.080;13.642;2024-01-11T04:19:51;-7.70;99.90
74488;DHT22;63019;51.080;13.642;2024-01-11T04:20:53;-7.60;99.90
74488;DHT22;63019;51.080;13.642;2024-01-11T04:21:54;-7.60;99.90
74488;DHT22;63019;51.080;13.642;2024-01-11T04:22:56;-7.60;99.90
74488;DHT22;63019;51.080;13.642;2024-01-11T04:23:59;-7.60;99.90
74488;DHT22;63019;51.080;13.642;2024-01-11T04:25:01;-7.60;99.90
74488;DHT22;63019;51.080;13.642;2024-01-11T04:26:03;-7.60;99.90
74488;DHT22;63019;51.080;13.642;2024-01-11T04:27:04;-7.70;99.90
74488;DHT22;63019;51.080;13.642;2024-01-11T04:28:06;-7.70;99.90
74488;DHT22;63019;51.080;13.642;2024-01-11T04:29:08;-7.70;99.90
74488;DHT22;63019;51.080;13.642;2024-01-11T04:30:10;-7.80;99.90
74488;DHT22;63019;51.080;13.642;2024-01-11T04:31:12;-7.80;99.90
74488;DHT22;63019;51.080;13.642;2024-01-11T04:32:14;-7.80;99.90
74488;DHT22;63019;51.080;13.642;2024-01-11T04:33:17;-7.80;99.90
74488;DHT22;63019;51.080;13.642;2024-01-11T04:34:21;-7.90;99.90
74488;DHT22;63019;51.080;13.642;2024-01-11T04:35:23;-7.90;99.90
74488;DHT22;63019;51.080;13.642;2024-01-11T04:36:25;-7.90;99.90
74488;DHT22;63019;51.080;13.642;2024-01-11T04:37:27;-7.90;99.90
74488;DHT22;63019;51.080;13.642;2024-01-11T04:38:29;-8.00;99.90
74488;DHT22;63019;51.080;13.642;2024-01-11T04:39:31;-8.10;99.90
74488;DHT22;63019;51.080;13.642;2024-01-11T04:40:33;-8.10;99.90
74488;DHT22;63019;51.080;13.642;2024-01-11T04:41:36;-8.10;99.90
74488;DHT22;63019;51.080;13.642;2024-01-11T04:42:41;-8.10;99.90
74488;DHT22;63019;51.080;13.642;2024-01-11T04:43:43;-8.20;99.90
74488;DHT22;63019;51.080;13.642;2024-01-11T04:44:45;-8.20;99.90
74488;DHT22;63019;51.080;13.642;2024-01-11T04:45:47;-8.20;99.90
74488;DHT22;63019;51.080;13.642;2024-01-11T04:46:50;-8.10;99.90
74488;DHT22;63019;51.080;13.642;2024-01-11T04:47:51;-8.10;99.90
74488;DHT22;63019;51.080;13.642;2024-01-11T04:48:54;-8.00;99.90
74488;DHT22;63019;51.080;13.642;2024-01-11T04:49:56;-8.00;99.90
74488;DHT22;63019;51.080;13.642;2024-01-11T04:50:58;-7.90;99.90
74488;DHT22;63019;51.080;13.642;2024-01-11T04:52:00;-7.90;99.90
74488;DHT22;63019;51.080;13.642;2024-01-11T04:53:02;-7.90;99.90
74488;DHT22;63019;51.080;13.642;2024-01-11T04:54:04;-7.90;99.90
74488;DHT22;63019;51.080;13.642;2024-01-11T04:55:06;-7.90;99.90
74488;DHT22;63019;51.080;13.642;2024-01-11T04:56:09;-7.90;99.90
74488;DHT22;63019;51.080;13.642;2024-01-11T04:57:11;-7.90;99.90
74488;DHT22;63019;51.080;13.642;2024-01-11T04:58:13;-7.90;99.90
74488;DHT22;63019;51.080;13.642;2024-01-11T04:59:15;-7.80;99.90
74488;DHT22;63019;51.080;13.642;2024-01-11T05:00:17;-7.80;99.90
74488;DHT22;63019;51.080;13.642;2024-01-11T05:01:19;-7.80;99.90
74488;DHT22;63019;51.080;13.642;2024-01-11T05:02:21;-7.80;99.90
74488;DHT22;63019;51.080;13.642;2024-01-11T05:03:24;-7.80;99.90
74488;DHT22;63019;51.080;13.642;2024-01-11T05:04:26;-7.80;99.90
74488;DHT22;63019;51.080;13.642;2024-01-11T05:05:27;-7.70;99.90
74488;DHT22;63019;51.080;13.642;2024-01-11T05:06:29;-7.70;99.90
74488;DHT22;63019;51.080;13.642;2024-01-11T05:07:32;-7.70;99.90
74488;DHT22;63019;51.080;13.642;2024-01-11T05:08:34;-7.70;99.90
74488;DHT22;63019;51.080;13.642;2024-01-11T05:09:36;-7.70;99.90
74488;DHT22;63019;51.080;13.642;2024-01-11T05:10:38;-7.70;99.90
74488;DHT22;63019;51.080;13.642;2024-01-11T05:11:39;-7.70;99.90
74488;DHT22;63019;51.080;13.642;2024-01-11T05:12:41;-7.60;99.90
74488;DHT22;63019;51.080;13.642;2024-01-11T05:13:44;-7.60;99.90
74488;DHT22;63019;51.080;13.642;2024-01-11T05:14:50;-7.70;99.90
74488;DHT22;63019;51.080;13.642;2024-01-11T05:15:52;-7.70;99.90
74488;DHT22;63019;51.080;13.642;2024-01-11T05:16:54;-7.70;99.90
74488;DHT22;63019;51.080;13.642;2024-01-11T05:17:56;-7.70;99.90
74488;DHT22;63019;51.080;13.642;2024-01-11T05:18:58;-7.60;99.90
74488;DHT22;63019;51.080;13.642;2024-01-11T05:20:00;-7.60;99.90
74488;DHT22;63019;51.080;13.642;2024-01-11T05:21:03;-7.60;99.90
74488;DHT22;63019;51.080;13.642;2024-01-11T05:22:04;-7.60;99.90
74488;DHT22;63019;51.080;13.642;2024-01-11T05:23:06;-7.60;99.90
74488;DHT22;63019;51.080;13.642;2024-01-11T05:24:09;-7.60;99.90
74488;DHT22;63019;51.080;13.642;2024-01-11T05:25:13;-7.60;99.90
74488;DHT22;63019;51.080;13.642;2024-01-11T05:26:18;-7.70;99.90
74488;DHT22;63019;51.080;13.642;2024-01-11T05:27:20;-7.70;99.90
74488;DHT22;63019;51.080;13.642;2024-01-11T05:28:22;-7.70;99.90
74488;DHT22;63019;51.080;13.642;2024-01-11T05:29:24;-7.60;99.90
74488;DHT22;63019;51.080;13.642;2024-01-11T05:30:26;-7.60;99.90
74488;DHT22;63019;51.080;13.642;2024-01-11T05:31:31;-7.60;99.90
74488;DHT22;63019;51.080;13.642;2024-01-11T05:32:33;-7.60;99.90
74488;DHT22;63019;51.080;13.642;2024-01-11T05:33:36;-7.60;99.90
74488;DHT22;63019;51.080;13.642;2024-01-11T05:34:38;-7.60;99.90
74488;DHT22;63019;51.080;13.642;2024-01-11T05:35:40;-7.60;99.90
74488;DHT22;63019;51.080;13.642;2024-01-11T05:36:43;-7.60;99.90
74488;DHT22;63019;51.080;13.642;2024-01-11T05:37:45;-7.60;99.90
74488;DHT22;63019;51.080;13.642;2024-01-11T05:38:47;-7.60;99.90
74488;DHT22;63019;51.080;13.642;2024-01-11T05:39:49;-7.60;99.90
74488;DHT22;63019;51.080;13.642;2024-01-11T05:40:51;-7.70;99.90
74488;DHT22;63019;51.080;13.642;2024-01-11T05:41:53;-7.70;99.90
74488;DHT22;63019;51.080;13.642;2024-01-11T05:42:56;-7.70;99.90
74488;DHT22;63019;51.080;13.642;2024-01-11T05:43:58;-7.80;99.90
74488;DHT22;63019;51.080;13.642;2024-01-11T05:45:00;-7.80;99.90
74488;DHT22;63019;51.080;13.642;2024-01-11T05:46:02;-7.80;99.90
74488;DHT22;63019;51.080;13.642;2024-01-11T05:47:05;-7.80;99.90
74488;DHT22;63019;51.080;13.642;2024-01-11T05:48:07;-7.70;99.90
74488;DHT22;63019;51.080;13.642;2024-01-11T05:49:09;-7.80;99.90
74488;DHT22;63019;51.080;13.642;2024-01-11T05:50:11;-7.70;99.90
74488;DHT22;63019;51.080;13.642;2024-01-11T05:51:14;-7.70;99.90
74488;DHT22;63019;51.080;13.642;2024-01-11T05:52:16;-7.70;99.90
74488;DHT22;63019;51.080;13.642;2024-01-11T05:53:18;-7.80;99.90
74488;DHT22;63019;51.080;13.642;2024-01-11T05:54:22;-7.70;99.90
74488;DHT22;63019;51.080;13.642;2024-01-11T05:55:25;-7.70;99.90
74488;DHT22;63019;51.080;13.642;2024-01-11T05:56:26;-7.70;99.90
74488;DHT22;63019;51.080;13.642;2024-01-11T05:57:28;-7.70;99.90
74488;DHT22;63019;51.080;13.642;2024-01-11T05:58:30;-7.70;99.90
74488;DHT22;63019;51.080;13.642;2024-01-11T05:59:32;-7.70;99.90
74488;DHT22;63019;51.080;13.642;2024-01-11T06:00:35;-7.70;99.90
74488;DHT22;63019;51.080;13.642;2024-01-11T06:01:41;-7.80;99.90
74488;DHT22;63019;51.080;13.642;2024-01-11T06:02:44;-7.70;99.90
74488;DHT22;63019;51.080;13.642;2024-01-11T06:03:46;-7.70;99.90
74488;DHT22;63019;51.080;13.642;2024-01-11T06:04:49;-7.80;99.90
74488;DHT22;63019;51.080;13.642;2024-01-11T06:05:51;-7.80;99.90
74488;DHT22;63019;51.080;13.642;2024-01-11T06:06:53;-7.70;99.90
74488;DHT22;63019;51.080;13.642;2024-01-11T06:07:55;-7.70;99.90
74488;DHT22;63019;51.080;13.642;2024-01-11T06:08:57;-7.70;99.90
74488;DHT22;63019;51.080;13.642;2024-01-11T06:09:59;-7.70;99.90
74488;DHT22;63019;51.080;13.642;2024-01-11T06:11:03;-7.70;99.90
74488;DHT22;63019;51.080;13.642;2024-01-11T06:12:06;-7.80;99.90
74488;DHT22;63019;51.080;13.642;2024-01-11T06:13:08;-7.80;99.90
74488;DHT22;63019;51.080;13.642;2024-01-11T06:14:11;-7.80;99.90
74488;DHT22;63019;51.080;13.642;2024-01-11T06:15:13;-7.80;99.90
74488;DHT22;63019;51.080;13.642;2024-01-11T06:16:15;-7.80;99.90
74488;DHT22;63019;51.080;13.642;2024-01-11T06:17:17;-7.80;99.90
74488;DHT22;63019;51.080;13.642;2024-01-11T06:18:19;-7.80;99.90
74488;DHT22;63019;51.080;13.642;2024-01-11T06:19:22;-7.80;99.90
74488;DHT22;63019;51.080;13.642;2024-01-11T06:20:24;-7.80;99.90
74488;DHT22;63019;51.080;13.642;2024-01-11T06:21:26;-7.80;99.90
74488;DHT22;63019;51.080;13.642;2024-01-11T06:22:28;-7.80;99.90
74488;DHT22;63019;51.080;13.642;2024-01-11T06:23:30;-7.70;99.90
74488;DHT22;63019;51.080;13.642;2024-01-11T06:24:32;-7.60;99.90
74488;DHT22;63019;51.080;13.642;2024-01-11T06:25:34;-7.60;99.90
74488;DHT22;63019;51.080;13.642;2024-01-11T06:26:37;-7.60;99.90
74488;DHT22;63019;51.080;13.642;2024-01-11T06:27:41;-7.60;99.90
74488;DHT22;63019;51.080;13.642;2024-01-11T06:28:43;-7.60;99.90
74488;DHT22;63019;51.080;13.642;2024-01-11T06:29:45;-7.60;99.90